createdAt,value
2017-12-26T15:44:44.422Z,47.25
2017-12-26T15:47:10.798Z,46.87
2017-12-26T15:49:37.222Z,47.02
2017-12-26T15:52:03.660Z,46.70
2017-12-26T15:54:29.991Z,46.64
2017-12-26T15:56:56.350Z,46.65
2017-12-26T15:59:22.715Z,46.83
2017-12-26T16:01:49.084Z,46.92
2017-12-26T16:04:16.636Z,46.98
2017-12-26T16:08:52.655Z,46.95
2017-12-26T16:11:19.879Z,47.15
2017-12-26T16:15:06.148Z,47.36
2017-12-26T16:17:33.316Z,47.31
2017-12-26T16:20:00.554Z,47.66
2017-12-26T16:22:27.709Z,47.28
2017-12-26T16:24:55.648Z,47.49
2017-12-26T16:27:22.832Z,47.34
2017-12-26T16:29:50.027Z,46.99
2017-12-26T16:32:15.980Z,47.07
2017-12-26T16:34:41.948Z,46.81
2017-12-26T16:37:08.022Z,46.68
2017-12-26T16:39:34.154Z,46.70
2017-12-26T16:42:00.329Z,46.92
2017-12-26T16:44:26.470Z,46.77
2017-12-26T16:46:52.593Z,46.89
2017-12-26T16:49:18.738Z,46.96
2017-12-26T16:51:44.709Z,47.56
2017-12-26T16:54:10.825Z,46.62
2017-12-26T16:56:36.966Z,46.67
2017-12-26T16:59:02.932Z,46.62
2017-12-26T17:01:28.875Z,46.57
2017-12-26T17:03:54.834Z,46.72
2017-12-26T17:06:20.794Z,46.73
2017-12-26T17:08:46.762Z,46.63
2017-12-26T17:11:12.835Z,46.83
2017-12-26T17:13:38.978Z,47.32
2017-12-26T17:16:04.966Z,46.75
2017-12-26T17:18:30.990Z,46.92
2017-12-26T17:20:56.941Z,46.93
2017-12-26T17:23:23.114Z,46.94
2017-12-26T17:25:49.083Z,47.00
2017-12-26T17:28:15.031Z,46.89
2017-12-26T17:30:41.176Z,47.86
2017-12-26T17:33:07.149Z,47.19
2017-12-26T17:35:33.094Z,47.16
2017-12-26T17:37:59.047Z,47.73
2017-12-26T17:40:24.982Z,47.77
2017-12-26T17:59:10.466Z,49.58
2017-12-26T18:01:36.418Z,49.78
2017-12-26T18:04:02.376Z,49.82
2017-12-26T18:06:28.330Z,49.86
2017-12-26T18:08:54.363Z,49.95
2017-12-26T18:11:20.323Z,49.88
2017-12-26T18:13:46.278Z,49.79
2017-12-26T18:16:12.254Z,49.75
2017-12-26T18:18:38.208Z,49.98
2017-12-26T18:21:04.182Z,50.01
2017-12-26T18:23:30.134Z,49.85
2017-12-26T18:25:56.114Z,49.89
2017-12-26T18:28:22.066Z,49.88
2017-12-26T18:30:48.045Z,49.36
2017-12-26T18:33:13.990Z,49.28
2017-12-26T18:35:42.012Z,49.38
2017-12-26T18:38:07.966Z,49.58
2017-12-26T18:40:33.936Z,49.45
2017-12-26T18:42:59.905Z,50.04
2017-12-26T18:45:25.861Z,50.00
2017-12-26T18:47:51.849Z,50.06
2017-12-26T18:50:17.813Z,49.74
2017-12-26T18:52:43.789Z,50.11
2017-12-26T18:55:09.743Z,50.26
2017-12-26T18:57:35.885Z,50.44
2017-12-26T19:00:02.021Z,50.23
2017-12-26T19:02:28.054Z,50.63
2017-12-26T19:04:54.035Z,50.21
2017-12-26T19:07:20.053Z,50.21
2017-12-26T19:09:45.998Z,50.13
2017-12-26T19:12:11.974Z,49.89
2017-12-26T19:14:37.949Z,49.62
2017-12-26T19:17:03.892Z,50.00
2017-12-26T19:19:29.872Z,49.60
2017-12-26T19:21:55.842Z,49.45
2017-12-26T19:24:21.801Z,49.46
2017-12-26T19:26:47.749Z,49.73
2017-12-26T19:29:13.908Z,49.90
2017-12-26T19:31:39.890Z,49.78
2017-12-26T19:34:05.865Z,49.82
2017-12-26T19:36:31.829Z,50.18
2017-12-26T19:38:57.809Z,50.19
2017-12-26T19:41:23.761Z,50.40
2017-12-26T19:43:49.709Z,50.09
2017-12-26T19:46:15.682Z,50.39
2017-12-26T19:48:41.646Z,50.26
2017-12-26T19:51:07.742Z,50.52
2017-12-26T19:53:33.735Z,50.19
2017-12-26T19:55:59.705Z,50.18
2017-12-26T19:58:25.685Z,50.13
2017-12-26T20:00:51.637Z,50.05
2017-12-26T20:03:17.591Z,49.78
2017-12-26T20:05:43.584Z,50.14
2017-12-26T20:08:09.489Z,50.09
2017-12-26T20:10:35.453Z,49.99
2017-12-26T20:13:01.396Z,50.01
2017-12-26T20:15:27.349Z,49.89
2017-12-26T20:17:53.294Z,50.01
2017-12-26T20:20:19.254Z,50.14
2017-12-26T20:22:45.208Z,50.25
2017-12-26T20:25:11.355Z,50.16
2017-12-26T20:27:37.286Z,50.57
2017-12-26T20:30:03.642Z,50.38
2017-12-26T20:32:29.592Z,50.68
2017-12-26T20:34:55.564Z,50.44
2017-12-26T20:37:21.530Z,51.16
2017-12-26T20:39:47.473Z,50.94
2017-12-26T20:42:13.547Z,50.84
2017-12-26T20:44:39.570Z,50.97
2017-12-26T20:47:05.541Z,50.80
2017-12-26T20:49:31.533Z,50.40
2017-12-26T20:51:57.467Z,50.54
2017-12-26T20:54:23.433Z,50.00
2017-12-26T20:56:49.379Z,49.81
2017-12-26T20:59:15.351Z,50.10
2017-12-26T21:01:41.293Z,49.98
2017-12-26T21:04:07.242Z,50.23
2017-12-26T21:06:36.857Z,50.93
2017-12-26T21:09:02.810Z,50.55
2017-12-26T21:11:28.753Z,50.06
2017-12-26T21:13:54.714Z,50.50
2017-12-26T21:16:21.814Z,50.43
2017-12-26T21:18:47.757Z,51.00
2017-12-26T21:21:13.715Z,50.76
2017-12-26T21:23:40.337Z,50.42
2017-12-26T21:26:07.421Z,50.82
2017-12-26T21:28:33.393Z,50.56
2017-12-26T21:30:59.484Z,50.18
2017-12-26T21:33:25.561Z,50.25
2017-12-26T21:35:51.561Z,49.80
2017-12-26T21:38:17.502Z,49.32
2017-12-26T21:40:43.471Z,48.13
2017-12-26T21:43:09.483Z,48.46
2017-12-26T21:45:35.473Z,48.49
2017-12-26T21:48:01.430Z,47.63
2017-12-26T21:50:27.397Z,47.00
2017-12-26T21:52:53.373Z,46.87
2017-12-26T21:55:19.348Z,47.14
2017-12-26T21:57:45.302Z,47.59
2017-12-26T22:00:11.281Z,47.23
2017-12-26T22:02:37.241Z,46.88
2017-12-26T22:05:03.195Z,46.64
2017-12-26T22:07:29.160Z,46.71
2017-12-26T22:09:55.114Z,46.79
2017-12-26T22:12:21.082Z,47.45
2017-12-26T22:14:47.027Z,47.01
2017-12-26T22:17:13.008Z,46.96
2017-12-26T22:19:38.950Z,46.62
2017-12-26T22:22:04.918Z,46.62
2017-12-26T22:24:30.871Z,46.38
2017-12-26T22:26:56.817Z,46.50
2017-12-26T22:29:22.781Z,46.25
2017-12-26T22:31:48.745Z,46.19
2017-12-26T22:34:14.762Z,46.37
2017-12-26T22:36:40.701Z,46.64
2017-12-26T22:39:06.661Z,46.83
2017-12-26T22:41:32.608Z,47.33
2017-12-26T22:43:58.576Z,47.71
2017-12-26T22:46:24.539Z,47.92
2017-12-26T22:48:50.502Z,48.20
2017-12-26T22:51:16.479Z,48.32
2017-12-26T22:53:42.407Z,48.52
2017-12-26T22:56:08.352Z,48.72
2017-12-26T22:58:34.305Z,48.86
2017-12-26T23:01:00.247Z,49.13
2017-12-26T23:03:26.242Z,49.18
2017-12-26T23:05:52.222Z,49.32
2017-12-26T23:08:18.169Z,49.58
2017-12-26T23:10:44.169Z,49.48
2017-12-26T23:13:10.155Z,49.57
2017-12-26T23:15:36.123Z,49.37
2017-12-26T23:18:02.062Z,49.60
2017-12-26T23:20:28.015Z,49.44
2017-12-26T23:22:53.974Z,49.85
2017-12-26T23:25:19.955Z,49.51
2017-12-26T23:27:45.934Z,49.38
2017-12-26T23:30:11.898Z,50.09
2017-12-26T23:32:37.841Z,50.13
2017-12-26T23:35:03.955Z,49.92
2017-12-26T23:37:29.938Z,50.17
2017-12-26T23:39:55.902Z,50.20
2017-12-26T23:42:21.857Z,49.91
2017-12-26T23:44:47.801Z,50.15
2017-12-26T23:47:13.771Z,50.08
2017-12-26T23:49:39.744Z,50.42
2017-12-26T23:52:05.715Z,50.31
2017-12-26T23:54:31.653Z,50.57
2017-12-26T23:56:57.652Z,50.74
2017-12-26T23:59:23.817Z,50.31
